Terminal Aerodrome Forecast
Issued by NWS Sioux Falls, SD

Home | Current Version | Previous Version | Text Only | Print | Product List | Glossary On
Versions: 1 2 3 4 5 6 7 8 9 10 11 12 13 14 15 16 17 18 19
030
FTUS43 KFSD 172327
TAFHON
TAF
KHON 172327Z 1800/1824 27006KT P6SM SCT200
     FM180200 16005KT P6SM BKN200
     FM180600 13016G24KT P6SM BKN090
     FM181100 17012G18KT P6SM BKN120
     FM181700 22010KT P6SM BKN140
     FM182000 33015G23KT P6SM OVC015=

USA.gov is the U.S. government's official web portal to all federal, state and local government web resources and services.